Weather at Haikou Meilan International Airport

Public forecast

Using degrees Celsius for public forecast. Weather courtesy of forecast.io.

Current aviation weather report (METAR) for Haikou Meilan International Airport

Retrieved 2020/10/20 13:00 UTC (59 minutes ago):

ZJHK 201300Z 06005MPS 9999 FEW023 SCT030 25/21 Q1015 NOSIG

Aviation forecast (TAF) for Haikou Meilan International Airport

Retrieved 2020/10/20 12:03 UTC (2 hours ago):

TAF ZJHK 200904Z 2012/2112 02004MPS 9999 BKN020 TX25/2106Z TN21/2021Z